Time;durP1;ratioP1;P1;durP2;ratioP2;P2;SDS_P1;SDS_P2;PMS_P1;PMS_P2;Temp;Humidity;BMP_temperature;BMP_pressure;BME280_temperature;BME280_humidity;BME280_pressure;Samples;Min_cycle;Max_cycle;Signal;HPM_P1;HPM_P2
2023/05/26 00:00:06;;;;;;;28.50;2.72;;;10.20;99.90;;;;;;5092262;28;20088;-73
2023/05/26 00:02:39;;;;;;;19.73;2.80;;;10.20;99.90;;;;;;5093465;28;20036;-72
2023/05/26 00:05:16;;;;;;;22.05;2.80;;;10.10;99.90;;;;;;5090513;28;20038;-70
2023/05/26 00:07:42;;;;;;;12.85;2.47;;;10.20;99.90;;;;;;5091293;28;20039;-71
2023/05/26 00:10:11;;;;;;;17.92;2.90;;;10.20;99.90;;;;;;5091719;28;20028;-72
2023/05/26 00:12:40;;;;;;;12.40;2.65;;;10.10;99.90;;;;;;5089954;28;20067;-71
2023/05/26 00:15:06;;;;;;;15.13;3.08;;;10.10;99.90;;;;;;5091685;28;20052;-72
2023/05/26 00:17:32;;;;;;;30.38;4.32;;;10.00;99.90;;;;;;5092201;28;20033;-72
2023/05/26 00:19:59;;;;;;;14.57;2.33;;;10.00;99.90;;;;;;5093801;28;20098;-71
2023/05/26 00:22:28;;;;;;;16.98;3.15;;;10.00;99.90;;;;;;5088045;28;20061;-71
2023/05/26 00:24:59;;;;;;;16.17;3.67;;;10.00;99.90;;;;;;5089191;28;20040;-72
2023/05/26 00:27:34;;;;;;;21.70;2.83;;;10.00;99.90;;;;;;5091332;28;20051;-72
2023/05/26 00:30:09;;;;;;;16.05;5.22;;;10.00;99.90;;;;;;5089744;28;20038;-71
2023/05/26 00:32:38;;;;;;;20.20;2.97;;;9.90;99.90;;;;;;5094750;28;20118;-71
2023/05/26 00:35:04;;;;;;;25.50;3.30;;;9.90;99.90;;;;;;5089193;28;20767;-71
2023/05/26 00:37:30;;;;;;;13.95;3.38;;;9.90;99.90;;;;;;5095951;28;20483;-72
2023/05/26 00:39:56;;;;;;;18.73;2.67;;;9.80;99.90;;;;;;5092359;28;20101;-71
2023/05/26 00:42:21;;;;;;;18.83;3.20;;;9.80;99.90;;;;;;5091304;28;20115;-71
2023/05/26 00:44:51;;;;;;;24.10;3.15;;;9.80;99.90;;;;;;5092658;28;20051;-72
2023/05/26 00:47:17;;;;;;;16.65;2.42;;;9.90;99.90;;;;;;5095596;28;20100;-71
2023/05/26 00:49:44;;;;;;;16.40;2.75;;;9.80;99.90;;;;;;5089055;28;20032;-71
2023/05/26 00:52:16;;;;;;;17.08;3.55;;;9.80;99.90;;;;;;5083351;28;20059;-71
2023/05/26 00:54:48;;;;;;;27.90;3.63;;;9.80;99.90;;;;;;5085028;28;20115;-71
2023/05/26 00:57:20;;;;;;;19.55;2.90;;;9.80;99.90;;;;;;5086042;27;20048;-71
2023/05/26 00:59:49;;;;;;;19.38;2.50;;;9.80;99.90;;;;;;5093992;28;20512;-71
2023/05/26 01:02:15;;;;;;;18.87;2.30;;;9.80;99.90;;;;;;5093249;28;20583;-72
2023/05/26 01:04:41;;;;;;;23.40;2.80;;;9.70;99.90;;;;;;5084181;28;20036;-71
2023/05/26 01:07:08;;;;;;;16.90;2.45;;;9.70;99.90;;;;;;5085376;28;20028;-71
2023/05/26 01:09:33;;;;;;;23.00;3.03;;;9.60;99.90;;;;;;5089160;28;20031;-71
2023/05/26 01:12:24;;;;;;;25.08;3.55;;;9.60;99.90;;;;;;5092402;28;20035;-70
2023/05/26 01:15:14;;;;;;;18.75;4.80;;;9.60;99.90;;;;;;5091760;28;20029;-72
2023/05/26 01:18:16;;;;;;;20.27;3.42;;;9.50;99.90;;;;;;5086524;28;20119;-71
2023/05/26 01:20:53;;;;;;;18.40;2.17;;;9.50;99.90;;;;;;5083393;28;20561;-71
2023/05/26 01:23:53;;;;;;;24.73;2.10;;;9.50;99.90;;;;;;5085103;28;20056;-71
2023/05/26 01:26:42;;;;;;;19.43;3.23;;;9.50;99.90;;;;;;5079901;28;20036;-71
2023/05/26 01:29:18;;;;;;;30.70;3.88;;;9.50;99.90;;;;;;5095668;28;20058;-71
2023/05/26 01:31:44;;;;;;;17.90;2.80;;;9.40;99.90;;;;;;5089102;28;20040;-70
2023/05/26 01:34:10;;;;;;;12.52;2.47;;;9.40;99.90;;;;;;5088877;28;20032;-71
2023/05/26 01:36:35;;;;;;;16.38;2.90;;;9.40;99.90;;;;;;5086376;28;20082;-70
2023/05/26 01:39:02;;;;;;;15.80;3.08;;;9.40;99.90;;;;;;5092520;28;20476;-72
2023/05/26 01:41:51;;;;;;;12.50;2.63;;;9.40;99.90;;;;;;5094923;28;20138;-71
2023/05/26 01:44:31;;;;;;;22.25;2.55;;;9.40;99.90;;;;;;5094413;28;20187;-71
2023/05/26 01:47:04;;;;;;;37.20;4.40;;;9.40;99.90;;;;;;5086254;28;20043;-71
2023/05/26 01:49:32;;;;;;;16.88;2.47;;;9.30;99.90;;;;;;5092527;28;21389;-71
2023/05/26 01:52:01;;;;;;;26.77;3.95;;;9.30;99.90;;;;;;5090152;28;20032;-71
2023/05/26 01:54:32;;;;;;;21.27;4.15;;;9.30;99.90;;;;;;5092625;28;20042;-71
2023/05/26 01:56:58;;;;;;;21.65;2.95;;;9.30;99.90;;;;;;5092629;28;20040;-72
2023/05/26 01:59:24;;;;;;;16.20;2.88;;;9.30;99.90;;;;;;5097159;28;20035;-71
2023/05/26 02:01:50;;;;;;;24.42;3.08;;;9.30;99.90;;;;;;5092697;28;20110;-72
2023/05/26 02:04:16;;;;;;;22.83;3.28;;;9.30;99.90;;;;;;5096979;28;20513;-71
2023/05/26 02:06:41;;;;;;;21.23;2.97;;;9.20;99.90;;;;;;5091791;28;20073;-72
2023/05/26 02:09:07;;;;;;;19.45;3.22;;;9.20;99.90;;;;;;5093468;28;20032;-71
2023/05/26 02:11:33;;;;;;;15.48;2.60;;;9.20;99.90;;;;;;5093923;28;20024;-71
2023/05/26 02:13:59;;;;;;;16.70;3.08;;;9.20;99.90;;;;;;5096049;28;20115;-72
2023/05/26 02:16:32;;;;;;;19.83;2.63;;;9.20;99.90;;;;;;5099304;27;20046;-72
2023/05/26 02:18:58;;;;;;;19.58;3.00;;;9.20;99.90;;;;;;5087503;28;20105;-71
2023/05/26 02:21:23;;;;;;;24.65;3.50;;;9.20;99.90;;;;;;5090332;28;20093;-71
2023/05/26 02:23:49;;;;;;;16.60;2.15;;;9.10;99.90;;;;;;5095592;28;20032;-73
2023/05/26 02:26:18;;;;;;;15.88;2.05;;;9.20;99.90;;;;;;5090611;28;20044;-71
2023/05/26 02:28:44;;;;;;;13.02;2.60;;;9.20;99.90;;;;;;5094462;28;20530;-70
2023/05/26 02:31:12;;;;;;;23.05;2.22;;;9.10;99.90;;;;;;5093054;28;20067;-71
2023/05/26 02:33:41;;;;;;;28.27;3.08;;;9.10;99.90;;;;;;5095075;28;20063;-71
2023/05/26 02:36:13;;;;;;;14.30;2.78;;;9.10;99.90;;;;;;5086470;28;20139;-70
2023/05/26 02:38:40;;;;;;;18.38;2.85;;;9.10;99.90;;;;;;5091873;28;20099;-71
2023/05/26 02:41:08;;;;;;;24.65;2.75;;;9.10;99.90;;;;;;5091171;28;20055;-70
2023/05/26 02:43:34;;;;;;;13.52;2.97;;;9.00;99.90;;;;;;5091699;28;20038;-71
2023/05/26 02:46:03;;;;;;;14.40;2.97;;;9.00;99.90;;;;;;5095770;28;20024;-71
2023/05/26 02:48:35;;;;;;;21.67;2.83;;;9.00;99.90;;;;;;5095841;28;20663;-70
2023/05/26 02:51:00;;;;;;;18.00;3.03;;;9.00;99.90;;;;;;5096473;27;20034;-71
2023/05/26 02:53:29;;;;;;;19.08;3.35;;;8.90;99.90;;;;;;5090433;28;20356;-71
2023/05/26 02:55:56;;;;;;;19.40;3.10;;;8.90;99.90;;;;;;5093158;28;20452;-71
2023/05/26 02:58:21;;;;;;;15.82;2.47;;;8.90;99.90;;;;;;5096620;28;20126;-71
2023/05/26 03:00:47;;;;;;;17.02;2.60;;;8.90;99.90;;;;;;5093905;28;20127;-71
2023/05/26 03:03:13;;;;;;;22.40;3.45;;;8.90;99.90;;;;;;5097873;27;20042;-71
2023/05/26 03:05:39;;;;;;;15.90;2.38;;;8.90;99.90;;;;;;5094603;28;20039;-70
2023/05/26 03:08:04;;;;;;;19.45;4.35;;;8.90;99.90;;;;;;5095583;28;20663;-70
2023/05/26 03:10:36;;;;;;;15.98;2.60;;;8.90;99.90;;;;;;5092942;28;20091;-70
2023/05/26 03:13:05;;;;;;;12.85;2.58;;;8.90;99.90;;;;;;5091191;28;20036;-71
2023/05/26 03:15:35;;;;;;;16.50;2.55;;;8.90;99.90;;;;;;5091415;28;20374;-71
2023/05/26 03:18:03;;;;;;;20.10;1.80;;;8.90;99.90;;;;;;5090126;28;20047;-70
2023/05/26 03:20:29;;;;;;;19.92;3.28;;;8.90;99.90;;;;;;5096012;27;20384;-71
2023/05/26 03:22:55;;;;;;;25.25;2.88;;;8.90;99.90;;;;;;5094036;28;20036;-71
2023/05/26 03:25:21;;;;;;;15.27;2.15;;;8.90;99.90;;;;;;5095719;28;20057;-71
2023/05/26 03:27:46;;;;;;;17.63;3.13;;;8.90;99.90;;;;;;5095505;28;20028;-71
2023/05/26 03:30:12;;;;;;;16.05;2.65;;;8.90;99.90;;;;;;5087181;28;20035;-71
2023/05/26 03:32:38;;;;;;;22.05;3.83;;;8.90;99.90;;;;;;5093007;28;20043;-71
2023/05/26 03:35:04;;;;;;;24.63;3.85;;;8.80;99.90;;;;;;5092243;28;20036;-71
2023/05/26 03:37:29;;;;;;;21.05;3.80;;;8.80;99.90;;;;;;5095922;28;20155;-70
2023/05/26 03:40:05;;;;;;;16.17;3.08;;;8.80;99.90;;;;;;5093830;28;20151;-71
2023/05/26 03:42:31;;;;;;;25.55;3.22;;;8.80;99.90;;;;;;5096393;28;20097;-71
2023/05/26 03:44:56;;;;;;;21.02;3.38;;;8.80;99.90;;;;;;5092248;28;20035;-72
2023/05/26 03:47:22;;;;;;;16.65;4.47;;;8.80;99.90;;;;;;5092431;28;20128;-71
2023/05/26 03:49:50;;;;;;;19.48;2.67;;;8.80;99.90;;;;;;5094975;28;20035;-70
2023/05/26 03:52:22;;;;;;;13.98;2.60;;;8.80;99.90;;;;;;5091731;28;20040;-72
2023/05/26 03:54:48;;;;;;;17.98;4.20;;;8.80;99.90;;;;;;5095234;28;20035;-71
2023/05/26 03:57:13;;;;;;;15.52;3.58;;;8.80;99.90;;;;;;5098370;27;20031;-71
2023/05/26 03:59:42;;;;;;;20.63;3.25;;;8.80;99.90;;;;;;5094619;28;20046;-71
2023/05/26 04:02:10;;;;;;;20.33;3.53;;;8.80;99.90;;;;;;5089941;28;20059;-71
2023/05/26 04:04:45;;;;;;;12.52;2.75;;;8.80;99.90;;;;;;5093510;28;20062;-71
2023/05/26 04:07:11;;;;;;;18.60;2.97;;;8.80;99.90;;;;;;5086501;28;20030;-75
2023/05/26 04:09:37;;;;;;;34.00;4.18;;;8.80;99.90;;;;;;5093773;28;20035;-71
2023/05/26 04:12:11;;;;;;;18.15;2.72;;;8.80;99.90;;;;;;5095609;28;20538;-71
2023/05/26 04:14:49;;;;;;;17.35;1.88;;;8.90;99.90;;;;;;5092996;28;20053;-70
2023/05/26 04:17:18;;;;;;;17.10;1.98;;;8.90;99.90;;;;;;5089361;28;20040;-71
2023/05/26 04:19:44;;;;;;;31.63;3.90;;;8.90;99.90;;;;;;5094718;28;20128;-71
2023/05/26 04:22:12;;;;;;;22.58;3.47;;;8.90;99.90;;;;;;5094317;28;20111;-71
2023/05/26 04:24:40;;;;;;;15.52;2.63;;;8.90;99.90;;;;;;5092417;28;20119;-70
2023/05/26 04:27:15;;;;;;;13.88;2.47;;;8.90;99.90;;;;;;5095291;28;20028;-71
2023/05/26 04:29:40;;;;;;;22.58;3.38;;;8.90;99.90;;;;;;5088768;28;20038;-71
2023/05/26 04:32:08;;;;;;;20.85;3.22;;;8.90;99.90;;;;;;5092296;28;20024;-71
2023/05/26 04:34:39;;;;;;;27.00;3.33;;;9.00;99.90;;;;;;5092024;28;20036;-71
2023/05/26 04:37:11;;;;;;;14.13;2.90;;;9.00;99.90;;;;;;5096023;28;20100;-71
2023/05/26 04:39:36;;;;;;;17.02;3.33;;;9.00;99.90;;;;;;5092981;28;20062;-71
2023/05/26 04:42:08;;;;;;;20.50;2.67;;;9.10;99.90;;;;;;5094428;28;20031;-71
2023/05/26 04:44:34;;;;;;;17.63;2.20;;;9.10;99.90;;;;;;5095058;28;20032;-71
2023/05/26 04:47:03;;;;;;;13.60;2.80;;;9.10;99.90;;;;;;5091597;28;20043;-71
2023/05/26 04:49:32;;;;;;;15.40;2.78;;;9.20;99.90;;;;;;5094002;28;20546;-72
2023/05/26 04:51:59;;;;;;;18.25;2.63;;;9.20;99.90;;;;;;5094994;28;20145;-71
2023/05/26 04:54:28;;;;;;;15.25;2.78;;;9.30;99.90;;;;;;5091221;27;20028;-70
2023/05/26 04:56:54;;;;;;;14.35;2.47;;;9.30;99.90;;;;;;5093535;28;20495;-71
2023/05/26 04:59:21;;;;;;;14.15;2.33;;;9.30;99.90;;;;;;5095062;28;20118;-70
2023/05/26 05:01:47;;;;;;;23.65;3.22;;;9.40;99.90;;;;;;5093039;28;20017;-71
2023/05/26 05:04:14;;;;;;;17.00;3.45;;;9.50;99.90;;;;;;5096440;28;20399;-71
2023/05/26 05:06:40;;;;;;;20.67;2.65;;;9.50;99.90;;;;;;5096579;28;20054;-71
2023/05/26 05:09:08;;;;;;;16.83;2.85;;;9.60;99.90;;;;;;5087989;28;20060;-71
2023/05/26 05:11:36;;;;;;;17.90;2.97;;;9.70;99.90;;;;;;5084002;28;20028;-71
2023/05/26 05:14:02;;;;;;;18.65;3.30;;;9.70;99.90;;;;;;5088035;28;20028;-71
2023/05/26 05:16:28;;;;;;;20.65;4.15;;;9.80;99.90;;;;;;5084399;28;20427;-71
2023/05/26 05:18:56;;;;;;;20.17;2.60;;;9.80;99.90;;;;;;5084348;28;20032;-71
2023/05/26 05:21:25;;;;;;;10.60;2.83;;;9.90;99.90;;;;;;5094208;28;20036;-71
2023/05/26 05:23:50;;;;;;;15.75;3.17;;;10.00;99.90;;;;;;5086407;28;20040;-71
2023/05/26 05:26:19;;;;;;;19.42;3.28;;;10.00;99.90;;;;;;5085566;28;20084;-70
2023/05/26 05:28:47;;;;;;;19.33;2.55;;;10.00;99.90;;;;;;5088609;28;20032;-73
2023/05/26 05:31:16;;;;;;;15.07;3.17;;;10.20;99.90;;;;;;5085154;28;20032;-69
2023/05/26 05:33:48;;;;;;;20.05;2.92;;;10.30;99.90;;;;;;5087622;28;20507;-71
2023/05/26 05:36:17;;;;;;;18.58;2.78;;;10.50;99.90;;;;;;5089188;28;20062;-70
2023/05/26 05:38:45;;;;;;;13.43;2.60;;;10.70;99.90;;;;;;5093099;28;20449;-71
2023/05/26 05:41:14;;;;;;;13.07;2.60;;;11.00;99.90;;;;;;5080134;28;20032;-69
2023/05/26 05:43:40;;;;;;;11.45;2.28;;;11.30;99.90;;;;;;5089780;28;20044;-70
2023/05/26 05:46:11;;;;;;;16.05;2.83;;;11.70;99.90;;;;;;5088090;28;20063;-71
2023/05/26 05:48:39;;;;;;;14.23;2.53;;;12.10;99.90;;;;;;5088342;28;20028;-69
2023/05/26 05:51:11;;;;;;;18.10;2.42;;;12.60;99.90;;;;;;5090180;28;20423;-70
2023/05/26 05:53:36;;;;;;;17.75;2.70;;;12.90;99.90;;;;;;5089361;28;20028;-69
2023/05/26 05:56:02;;;;;;;12.70;2.15;;;13.10;99.90;;;;;;5086882;28;20028;-72
2023/05/26 05:58:30;;;;;;;15.43;2.88;;;13.30;99.90;;;;;;5087047;28;20496;-71
2023/05/26 06:00:56;;;;;;;16.38;2.50;;;13.60;99.90;;;;;;5087947;28;20055;-71
2023/05/26 06:03:25;;;;;;;14.65;2.15;;;14.00;99.90;;;;;;5090146;28;20063;-71
2023/05/26 06:05:50;;;;;;;10.00;2.70;;;14.30;99.90;;;;;;5089417;28;20105;-70
2023/05/26 06:08:16;;;;;;;9.23;1.92;;;14.90;99.90;;;;;;5088225;28;20063;-69
2023/05/26 06:10:44;;;;;;;11.35;2.10;;;15.40;99.90;;;;;;5096521;27;20063;-70
2023/05/26 06:13:16;;;;;;;10.82;2.13;;;16.20;99.60;;;;;;5084233;28;20085;-69
2023/05/26 06:15:48;;;;;;;12.82;2.75;;;17.10;99.40;;;;;;5087637;28;20072;-72
2023/05/26 06:18:13;;;;;;;12.50;2.65;;;17.90;97.10;;;;;;5089954;28;20123;-70
2023/05/26 06:20:39;;;;;;;13.68;2.60;;;17.50;96.30;;;;;;5093386;28;20115;-72
2023/05/26 06:23:08;;;;;;;9.25;2.78;;;17.90;96.10;;;;;;5092605;27;20047;-69
2023/05/26 06:25:33;;;;;;;11.40;2.97;;;18.50;95.30;;;;;;5088933;28;20043;-72
2023/05/26 06:27:59;;;;;;;10.43;2.60;;;19.30;95.40;;;;;;5090892;28;20036;-72
2023/05/26 06:30:28;;;;;;;14.57;2.97;;;19.70;94.10;;;;;;5089379;28;20035;-69
2023/05/26 06:32:54;;;;;;;14.20;3.20;;;20.20;93.70;;;;;;5087735;28;20028;-71
2023/05/26 06:35:19;;;;;;;12.07;3.40;;;20.50;92.90;;;;;;5089195;28;20067;-72
2023/05/26 06:37:55;;;;;;;14.93;3.33;;;20.40;92.10;;;;;;5095347;28;20062;-72
2023/05/26 06:40:20;;;;;;;14.73;2.28;;;21.10;92.30;;;;;;5083559;28;20040;-73
2023/05/26 06:42:49;;;;;;;16.10;2.97;;;21.40;90.80;;;;;;5086336;28;20441;-72
2023/05/26 06:45:18;;;;;;;10.50;2.67;;;20.80;90.50;;;;;;5081583;28;20523;-75
2023/05/26 06:47:47;;;;;;;9.80;3.15;;;20.20;92.10;;;;;;5087893;28;20043;-73
2023/05/26 06:50:16;;;;;;;13.20;2.85;;;20.60;91.20;;;;;;5087255;28;20091;-74
2023/05/26 06:52:44;;;;;;;15.95;3.40;;;20.50;91.00;;;;;;5095835;28;20061;-72
2023/05/26 06:55:10;;;;;;;8.55;2.47;;;19.80;91.90;;;;;;5085525;28;20557;-72
2023/05/26 06:57:35;;;;;;;12.93;2.83;;;19.70;91.90;;;;;;5093172;28;20036;-73
2023/05/26 07:00:02;;;;;;;12.57;2.67;;;20.50;91.50;;;;;;5087341;28;20067;-74
2023/05/26 07:02:33;;;;;;;13.68;3.00;;;21.00;91.30;;;;;;5085466;28;20081;-72
2023/05/26 07:04:59;;;;;;;11.40;2.88;;;20.90;90.30;;;;;;5087719;28;20043;-73
2023/05/26 07:07:24;;;;;;;15.65;3.60;;;21.00;90.40;;;;;;5092278;28;20039;-71
2023/05/26 07:09:53;;;;;;;24.67;3.58;;;21.20;90.10;;;;;;5090226;28;20089;-76
2023/05/26 07:12:19;;;;;;;11.88;3.13;;;21.60;88.30;;;;;;5091797;28;20480;-74
2023/05/26 07:14:48;;;;;;;14.02;2.88;;;22.30;87.50;;;;;;5091226;28;20383;-73
2023/05/26 07:17:14;;;;;;;17.33;3.10;;;22.80;87.20;;;;;;5090461;28;20040;-73
2023/05/26 07:19:46;;;;;;;15.65;3.33;;;23.00;85.30;;;;;;5097981;28;20361;-74
2023/05/26 07:22:11;;;;;;;11.30;3.15;;;23.60;84.70;;;;;;5087682;28;20032;-73
2023/05/26 07:24:37;;;;;;;20.23;3.88;;;24.00;86.90;;;;;;5090021;28;20047;-75
2023/05/26 07:27:03;;;;;;;14.93;3.97;;;24.00;82.40;;;;;;5090532;28;20078;-72
2023/05/26 07:29:28;;;;;;;16.88;3.90;;;24.00;81.90;;;;;;5078752;28;20047;-73
2023/05/26 07:31:54;;;;;;;22.60;4.68;;;23.80;81.20;;;;;;5086835;28;20024;-72
2023/05/26 07:34:20;;;;;;;15.45;3.15;;;24.10;80.80;;;;;;5087118;28;20035;-71
2023/05/26 07:36:45;;;;;;;17.67;3.95;;;24.40;80.40;;;;;;5086322;28;20106;-71
2023/05/26 07:39:11;;;;;;;20.73;3.60;;;24.80;80.40;;;;;;5087860;28;20040;-73
2023/05/26 07:41:37;;;;;;;18.77;4.28;;;24.80;79.30;;;;;;5086877;28;20546;-73
2023/05/26 07:44:02;;;;;;;13.50;3.50;;;24.60;78.20;;;;;;5088349;28;20491;-71
2023/05/26 07:46:34;;;;;;;15.25;3.70;;;23.90;78.40;;;;;;5090536;27;20052;-71
2023/05/26 07:49:00;;;;;;;31.52;3.45;;;23.60;80.60;;;;;;5084713;28;20614;-72
2023/05/26 07:51:25;;;;;;;15.48;3.45;;;23.50;80.80;;;;;;5089509;28;20515;-71
2023/05/26 07:53:51;;;;;;;15.38;3.47;;;23.50;81.20;;;;;;5087732;27;20040;-73
2023/05/26 07:56:19;;;;;;;14.63;3.53;;;23.80;81.00;;;;;;5090920;28;20111;-71
2023/05/26 07:58:45;;;;;;;16.63;3.47;;;23.60;80.20;;;;;;5088154;28;20537;-72
2023/05/26 08:01:11;;;;;;;8.65;2.50;;;23.20;81.20;;;;;;5085305;28;20073;-73
2023/05/26 08:03:39;;;;;;;10.43;2.80;;;23.20;81.30;;;;;;5091099;28;20583;-72
2023/05/26 08:06:11;;;;;;;11.05;2.38;;;22.10;80.90;;;;;;5086183;28;20043;-73
2023/05/26 08:08:37;;;;;;;12.88;2.58;;;21.40;83.30;;;;;;5087614;28;20655;-73
2023/05/26 08:11:05;;;;;;;14.75;2.97;;;21.00;85.20;;;;;;5089484;28;20035;-69
2023/05/26 08:13:30;;;;;;;15.50;2.97;;;20.30;86.70;;;;;;5089768;28;20032;-74
2023/05/26 08:15:56;;;;;;;9.88;2.17;;;19.90;87.50;;;;;;5086533;28;20039;-70
2023/05/26 08:18:27;;;;;;;14.68;1.90;;;19.60;87.50;;;;;;5084929;28;20210;-71
2023/05/26 08:20:56;;;;;;;12.52;2.20;;;19.10;88.20;;;;;;5087464;28;20027;-72
2023/05/26 08:23:21;;;;;;;12.48;2.13;;;19.00;90.00;;;;;;5088341;28;20039;-72
2023/05/26 08:25:47;;;;;;;15.57;2.53;;;19.20;88.50;;;;;;5084040;28;20036;-70
2023/05/26 08:28:13;;;;;;;14.35;1.80;;;19.30;87.70;;;;;;5082510;28;20032;-74
2023/05/26 08:30:40;;;;;;;11.02;2.70;;;19.00;88.00;;;;;;5085590;28;20119;-71
2023/05/26 08:33:05;;;;;;;9.32;2.25;;;18.80;89.10;;;;;;5086611;28;20031;-71
2023/05/26 08:35:31;;;;;;;14.13;2.97;;;18.60;88.50;;;;;;5085112;28;20042;-70
2023/05/26 08:37:59;;;;;;;8.23;1.35;;;18.50;90.00;;;;;;5088422;28;20549;-72
2023/05/26 08:40:28;;;;;;;10.60;2.35;;;18.40;90.00;;;;;;5084584;28;20043;-71
2023/05/26 08:43:00;;;;;;;9.63;1.98;;;18.40;90.30;;;;;;5084109;28;20032;-70
2023/05/26 08:45:30;;;;;;;17.85;1.95;;;18.40;90.00;;;;;;5083090;28;20150;-72
2023/05/26 08:47:59;;;;;;;12.40;2.17;;;18.30;90.10;;;;;;5085626;28;20119;-71
2023/05/26 08:50:27;;;;;;;8.05;1.85;;;18.30;90.60;;;;;;5084771;28;20281;-70
2023/05/26 08:52:53;;;;;;;13.85;1.63;;;18.50;90.30;;;;;;5088451;28;20574;-73
2023/05/26 08:55:19;;;;;;;11.40;1.95;;;18.50;90.90;;;;;;5087208;28;20031;-73
2023/05/26 08:57:48;;;;;;;8.30;2.17;;;18.80;90.90;;;;;;5091404;28;20036;-72
2023/05/26 09:00:16;;;;;;;13.00;2.17;;;18.70;90.10;;;;;;5098911;28;20046;-71
2023/05/26 09:02:48;;;;;;;9.93;1.98;;;18.60;90.80;;;;;;5092722;28;20392;-69
2023/05/26 09:05:16;;;;;;;5.60;1.52;;;18.40;90.80;;;;;;5091198;28;20119;-74
2023/05/26 09:07:45;;;;;;;17.60;2.60;;;18.30;91.10;;;;;;5093514;28;20055;-73
2023/05/26 09:10:24;;;;;;;7.82;2.15;;;18.20;91.30;;;;;;5090072;28;20166;-72
2023/05/26 09:13:02;;;;;;;9.10;1.70;;;18.30;91.80;;;;;;5096156;28;20036;-72
2023/05/26 09:15:27;;;;;;;16.00;2.47;;;18.40;91.20;;;;;;5109845;28;20082;-72
2023/05/26 09:17:53;;;;;;;13.27;2.08;;;18.30;90.90;;;;;;5083500;28;20426;-71
2023/05/26 09:20:19;;;;;;;9.35;2.08;;;18.40;89.60;;;;;;5084591;28;20028;-71
2023/05/26 09:22:45;;;;;;;19.60;2.55;;;18.40;88.60;;;;;;5087911;28;20088;-71
2023/05/26 09:25:16;;;;;;;17.48;2.42;;;18.50;90.20;;;;;;5085215;28;20043;-73
2023/05/26 09:27:46;;;;;;;;;;;18.40;90.40;;;;;;5100246;28;20384;-73
2023/05/26 09:30:20;;;;;;;7.85;1.50;;;18.30;90.20;;;;;;5087933;28;19961;-73
2023/05/26 09:32:52;;;;;;;16.50;2.03;;;18.30;90.00;;;;;;5087698;28;20451;-72
2023/05/26 09:35:17;;;;;;;12.65;2.25;;;18.50;89.50;;;;;;5088777;28;20520;-74
2023/05/26 09:37:46;;;;;;;17.17;3.28;;;18.70;90.30;;;;;;5086802;28;20032;-72
2023/05/26 09:40:14;;;;;;;6.10;1.48;;;18.60;89.90;;;;;;5088315;28;20563;-71
2023/05/26 09:42:54;;;;;;;9.90;1.85;;;18.50;89.10;;;;;;5087006;28;20071;-71
2023/05/26 09:45:20;;;;;;;7.50;1.80;;;18.50;88.60;;;;;;5090322;28;20559;-74
2023/05/26 09:47:50;;;;;;;14.70;1.95;;;18.50;89.50;;;;;;5081277;28;20042;-72
2023/05/26 09:50:15;;;;;;;13.73;1.25;;;18.50;89.20;;;;;;5082465;28;20570;-72
2023/05/26 09:52:42;;;;;;;14.85;1.73;;;18.50;90.20;;;;;;5085809;28;20063;-73
2023/05/26 09:55:11;;;;;;;9.00;1.75;;;18.50;89.80;;;;;;5085163;28;20036;-70
2023/05/26 09:57:38;;;;;;;15.90;2.85;;;18.50;89.90;;;;;;5086953;28;20048;-72
2023/05/26 10:00:09;;;;;;;7.28;1.35;;;18.40;90.20;;;;;;5086872;28;20024;-72
2023/05/26 10:02:36;;;;;;;14.80;2.70;;;18.40;90.50;;;;;;5083022;28;20028;-73
2023/05/26 10:05:03;;;;;;;8.80;1.80;;;18.60;90.00;;;;;;5090301;28;20048;-71
2023/05/26 10:07:31;;;;;;;8.70;2.05;;;18.60;88.80;;;;;;5084463;28;20024;-74
2023/05/26 10:10:01;;;;;;;8.43;1.63;;;18.70;89.40;;;;;;5091159;28;20559;-73
2023/05/26 10:12:31;;;;;;;12.15;2.50;;;18.70;89.00;;;;;;5085462;28;20020;-73
2023/05/26 10:14:58;;;;;;;9.32;2.03;;;18.90;88.40;;;;;;5091412;28;20118;-72
2023/05/26 10:17:25;;;;;;;10.90;1.95;;;19.00;90.00;;;;;;5089475;28;20050;-73
2023/05/26 10:19:52;;;;;;;16.60;1.90;;;19.20;88.90;;;;;;5082929;28;20064;-73
2023/05/26 10:22:30;;;;;;;6.32;1.55;;;19.20;88.30;;;;;;5089086;28;20028;-72
2023/05/26 10:25:02;;;;;;;12.60;2.33;;;19.00;88.80;;;;;;5085057;28;20039;-71
2023/05/26 10:27:57;;;;;;;10.80;1.88;;;19.00;88.00;;;;;;5087895;28;20035;-71
2023/05/26 10:30:24;;;;;;;9.25;2.03;;;19.00;89.30;;;;;;5125176;27;20059;-71
2023/05/26 10:32:55;;;;;;;6.80;1.67;;;19.00;88.90;;;;;;5091268;28;20032;-71
2023/05/26 10:35:27;;;;;;;10.57;1.77;;;18.90;88.60;;;;;;5088773;28;20035;-71
2023/05/26 10:38:02;;;;;;;11.57;2.15;;;18.90;86.80;;;;;;5083834;28;20828;-71
2023/05/26 10:40:33;;;;;;;12.45;1.60;;;18.80;87.30;;;;;;5089548;28;20043;-71
2023/05/26 10:43:01;;;;;;;10.05;1.60;;;18.80;88.90;;;;;;5090866;27;20031;-73
2023/05/26 10:45:32;;;;;;;11.23;1.90;;;18.90;88.30;;;;;;5088775;28;20036;-72
2023/05/26 10:48:05;;;;;;;12.50;1.38;;;18.90;88.10;;;;;;5089760;28;20522;-71
2023/05/26 10:50:59;;;;;;;12.70;2.25;;;18.90;89.30;;;;;;5091184;28;20051;-71
2023/05/26 10:53:29;;;;;;;8.40;2.15;;;19.10;88.40;;;;;;5089897;28;20032;-72
2023/05/26 10:56:14;;;;;;;12.13;1.67;;;19.00;87.50;;;;;;5099022;27;20035;-72
2023/05/26 10:58:45;;;;;;;8.25;2.25;;;19.10;88.40;;;;;;5093149;27;20177;-71
2023/05/26 11:01:16;;;;;;;10.32;2.78;;;19.20;88.30;;;;;;5090752;28;20140;-71
2023/05/26 11:03:46;;;;;;;11.45;2.00;;;19.20;88.30;;;;;;5090549;28;20489;-72
2023/05/26 11:06:14;;;;;;;9.35;1.58;;;19.20;88.30;;;;;;5091838;28;20039;-71
2023/05/26 11:08:48;;;;;;;10.20;1.48;;;19.40;87.50;;;;;;5094440;28;20036;-71
2023/05/26 11:11:29;;;;;;;12.27;2.15;;;19.40;86.60;;;;;;5094872;28;20046;-77
2023/05/26 11:14:09;;;;;;;13.15;1.60;;;19.30;88.60;;;;;;5091553;28;20023;-72
2023/05/26 11:16:36;;;;;;;10.40;1.80;;;19.30;87.70;;;;;;5091387;28;20036;-71
2023/05/26 11:19:07;;;;;;;13.98;1.98;;;19.30;88.70;;;;;;5093087;28;20046;-72
2023/05/26 11:21:37;;;;;;;8.82;1.58;;;19.30;87.90;;;;;;5092942;28;20047;-72
2023/05/26 11:24:04;;;;;;;8.13;1.95;;;19.40;88.40;;;;;;5092723;28;20157;-72
2023/05/26 11:26:31;;;;;;;8.60;2.13;;;19.40;89.30;;;;;;5087839;28;20032;-72
2023/05/26 11:28:58;;;;;;;9.18;1.48;;;19.40;87.40;;;;;;5090940;28;20024;-73
2023/05/26 11:31:27;;;;;;;9.88;1.70;;;19.50;87.70;;;;;;5091332;28;20032;-72
2023/05/26 11:33:54;;;;;;;18.52;2.35;;;19.50;86.70;;;;;;5090368;27;20028;-72
2023/05/26 11:36:21;;;;;;;4.18;1.38;;;19.40;86.50;;;;;;5091897;28;20042;-72
2023/05/26 11:39:00;;;;;;;10.05;1.58;;;19.40;87.60;;;;;;5091542;28;20047;-72
2023/05/26 11:41:27;;;;;;;10.27;1.33;;;19.40;86.90;;;;;;5090481;28;20441;-71
2023/05/26 11:43:54;;;;;;;13.63;1.83;;;19.50;85.50;;;;;;5089601;28;20032;-71
2023/05/26 11:46:21;;;;;;;15.02;1.95;;;19.50;85.70;;;;;;5092856;28;20049;-72
2023/05/26 11:48:47;;;;;;;16.48;2.15;;;19.50;85.90;;;;;;5091492;28;20492;-72
2023/05/26 11:51:15;;;;;;;8.80;1.33;;;19.60;86.60;;;;;;5092267;28;20057;-71
2023/05/26 11:53:42;;;;;;;8.77;1.30;;;19.70;86.10;;;;;;5094300;28;20040;-71
2023/05/26 11:56:10;;;;;;;9.82;1.90;;;19.60;85.50;;;;;;5091435;28;20124;-71
2023/05/26 11:58:41;;;;;;;7.43;1.55;;;19.60;86.00;;;;;;5092099;28;20036;-70
2023/05/26 12:01:07;;;;;;;13.00;2.28;;;19.50;86.60;;;;;;5095808;28;20084;-71
2023/05/26 12:03:36;;;;;;;15.85;2.15;;;19.50;85.70;;;;;;5091131;27;20032;-70
2023/05/26 12:06:23;;;;;;;10.65;1.50;;;19.40;85.00;;;;;;5092261;27;20059;-71
2023/05/26 12:08:49;;;;;;;10.00;1.60;;;19.40;86.00;;;;;;5087100;28;20040;-73
2023/05/26 12:11:18;;;;;;;10.38;1.33;;;19.30;85.90;;;;;;5090647;28;20036;-71
2023/05/26 12:13:45;;;;;;;9.55;1.35;;;19.40;87.40;;;;;;5088920;28;20032;-70
2023/05/26 12:16:19;;;;;;;11.10;1.60;;;19.40;85.70;;;;;;5088423;28;20514;-73
2023/05/26 12:18:52;;;;;;;12.25;1.60;;;19.40;86.60;;;;;;5085163;28;20051;-70
2023/05/26 12:21:21;;;;;;;9.90;2.03;;;19.30;86.60;;;;;;5087860;28;20019;-70
2023/05/26 12:23:50;;;;;;;7.60;1.60;;;19.30;86.40;;;;;;5089566;28;20039;-70
2023/05/26 12:26:27;;;;;;;10.13;1.35;;;19.30;85.80;;;;;;5089040;28;20032;-71
2023/05/26 12:29:15;;;;;;;8.63;1.38;;;19.30;86.10;;;;;;5091783;28;20154;-72
2023/05/26 12:31:50;;;;;;;12.52;1.63;;;19.20;86.30;;;;;;5087448;28;20040;-71
2023/05/26 12:34:23;;;;;;;13.63;1.80;;;19.30;85.50;;;;;;5085028;28;20151;-72
2023/05/26 12:36:51;;;;;;;9.60;1.83;;;19.20;86.10;;;;;;5084480;28;20032;-70
2023/05/26 12:39:18;;;;;;;11.80;1.58;;;19.20;86.00;;;;;;5083785;28;20064;-72
2023/05/26 12:41:47;;;;;;;13.05;2.10;;;19.20;86.00;;;;;;5084611;28;20032;-71
2023/05/26 12:44:19;;;;;;;8.68;2.15;;;19.10;85.50;;;;;;5089833;28;20039;-71
2023/05/26 12:46:45;;;;;;;10.50;1.50;;;19.10;85.50;;;;;;5087094;28;20051;-70
2023/05/26 12:49:13;;;;;;;8.00;1.65;;;19.20;86.30;;;;;;5084063;28;20657;-72
2023/05/26 12:51:40;;;;;;;11.43;1.48;;;19.00;85.70;;;;;;5091859;28;20023;-71